sensor_id;sensor_type;location;lat;lon;timestamp;P1;durP1;ratioP1;P2;durP2;ratioP2
26042;SDS011;13818;52.156;5.382;2023-02-22T00:01:18;46.42;;;14.20;;
26042;SDS011;13818;52.156;5.382;2023-02-22T00:03:53;47.40;;;13.95;;
26042;SDS011;13818;52.156;5.382;2023-02-22T00:06:20;42.40;;;13.00;;
26042;SDS011;13818;52.156;5.382;2023-02-22T00:08:49;38.70;;;12.50;;
26042;SDS011;13818;52.156;5.382;2023-02-22T00:11:17;39.95;;;13.30;;
26042;SDS011;13818;52.156;5.382;2023-02-22T00:13:44;47.15;;;13.02;;
26042;SDS011;13818;52.156;5.382;2023-02-22T00:16:14;44.22;;;11.90;;
26042;SDS011;13818;52.156;5.382;2023-02-22T00:18:43;38.92;;;11.82;;
26042;SDS011;13818;52.156;5.382;2023-02-22T00:21:11;38.55;;;11.82;;
26042;SDS011;13818;52.156;5.382;2023-02-22T00:23:40;36.60;;;12.05;;
26042;SDS011;13818;52.156;5.382;2023-02-22T00:26:11;40.83;;;11.45;;
26042;SDS011;13818;52.156;5.382;2023-02-22T00:28:42;40.72;;;11.45;;
26042;SDS011;13818;52.156;5.382;2023-02-22T00:31:09;36.38;;;10.88;;
26042;SDS011;13818;52.156;5.382;2023-02-22T00:33:37;43.78;;;12.57;;
26042;SDS011;13818;52.156;5.382;2023-02-22T00:36:04;35.35;;;11.20;;
26042;SDS011;13818;52.156;5.382;2023-02-22T00:38:32;42.78;;;11.05;;
26042;SDS011;13818;52.156;5.382;2023-02-22T00:40:58;36.17;;;11.65;;
26042;SDS011;13818;52.156;5.382;2023-02-22T00:43:25;33.65;;;9.70;;
26042;SDS011;13818;52.156;5.382;2023-02-22T00:45:51;37.67;;;11.05;;
26042;SDS011;13818;52.156;5.382;2023-02-22T00:48:18;34.10;;;10.95;;
26042;SDS011;13818;52.156;5.382;2023-02-22T00:50:45;34.33;;;11.68;;
26042;SDS011;13818;52.156;5.382;2023-02-22T00:53:13;35.15;;;11.40;;
26042;SDS011;13818;52.156;5.382;2023-02-22T00:55:41;36.20;;;11.35;;
26042;SDS011;13818;52.156;5.382;2023-02-22T00:58:07;43.17;;;11.95;;
26042;SDS011;13818;52.156;5.382;2023-02-22T01:00:35;34.25;;;10.20;;
26042;SDS011;13818;52.156;5.382;2023-02-22T01:03:06;36.10;;;11.57;;
26042;SDS011;13818;52.156;5.382;2023-02-22T01:05:35;32.70;;;10.10;;
26042;SDS011;13818;52.156;5.382;2023-02-22T01:08:03;38.17;;;10.98;;
26042;SDS011;13818;52.156;5.382;2023-02-22T01:10:30;31.05;;;9.35;;
26042;SDS011;13818;52.156;5.382;2023-02-22T01:12:59;30.88;;;9.93;;
26042;SDS011;13818;52.156;5.382;2023-02-22T01:15:29;34.38;;;10.73;;
26042;SDS011;13818;52.156;5.382;2023-02-22T01:17:56;34.75;;;10.63;;
26042;SDS011;13818;52.156;5.382;2023-02-22T01:20:24;33.47;;;11.10;;
26042;SDS011;13818;52.156;5.382;2023-02-22T01:22:52;36.20;;;11.70;;
26042;SDS011;13818;52.156;5.382;2023-02-22T01:25:20;33.03;;;10.27;;
26042;SDS011;13818;52.156;5.382;2023-02-22T01:27:50;30.33;;;10.07;;
26042;SDS011;13818;52.156;5.382;2023-02-22T01:35:18;30.60;;;9.55;;
26042;SDS011;13818;52.156;5.382;2023-02-22T01:37:46;36.08;;;11.40;;
26042;SDS011;13818;52.156;5.382;2023-02-22T01:40:19;33.97;;;11.05;;
26042;SDS011;13818;52.156;5.382;2023-02-22T01:42:48;37.97;;;11.77;;
26042;SDS011;13818;52.156;5.382;2023-02-22T01:48:19;32.28;;;10.55;;
26042;SDS011;13818;52.156;5.382;2023-02-22T01:50:51;32.05;;;10.02;;
26042;SDS011;13818;52.156;5.382;2023-02-22T01:53:21;33.78;;;10.30;;
26042;SDS011;13818;52.156;5.382;2023-02-22T01:55:50;33.22;;;10.63;;
26042;SDS011;13818;52.156;5.382;2023-02-22T01:58:20;30.67;;;9.80;;
26042;SDS011;13818;52.156;5.382;2023-02-22T02:03:18;32.20;;;9.60;;
26042;SDS011;13818;52.156;5.382;2023-02-22T02:05:48;31.98;;;10.15;;
26042;SDS011;13818;52.156;5.382;2023-02-22T02:08:20;29.02;;;8.50;;
26042;SDS011;13818;52.156;5.382;2023-02-22T02:11:08;31.42;;;10.68;;
26042;SDS011;13818;52.156;5.382;2023-02-22T02:13:34;31.42;;;10.45;;
26042;SDS011;13818;52.156;5.382;2023-02-22T02:16:03;31.95;;;10.55;;
26042;SDS011;13818;52.156;5.382;2023-02-22T02:18:30;32.17;;;10.33;;
26042;SDS011;13818;52.156;5.382;2023-02-22T02:21:03;35.50;;;10.43;;
26042;SDS011;13818;52.156;5.382;2023-02-22T02:23:53;34.78;;;10.75;;
26042;SDS011;13818;52.156;5.382;2023-02-22T02:29:42;36.47;;;12.45;;
26042;SDS011;13818;52.156;5.382;2023-02-22T02:32:28;36.58;;;11.60;;
26042;SDS011;13818;52.156;5.382;2023-02-22T02:35:05;37.00;;;12.52;;
26042;SDS011;13818;52.156;5.382;2023-02-22T02:37:40;37.50;;;12.00;;
26042;SDS011;13818;52.156;5.382;2023-02-22T02:40:16;35.58;;;11.88;;
26042;SDS011;13818;52.156;5.382;2023-02-22T02:42:49;36.72;;;12.48;;
26042;SDS011;13818;52.156;5.382;2023-02-22T02:45:21;36.88;;;11.05;;
26042;SDS011;13818;52.156;5.382;2023-02-22T02:47:52;36.88;;;11.10;;
26042;SDS011;13818;52.156;5.382;2023-02-22T02:50:24;39.15;;;11.98;;
26042;SDS011;13818;52.156;5.382;2023-02-22T02:52:55;39.22;;;11.85;;
26042;SDS011;13818;52.156;5.382;2023-02-22T02:55:26;40.08;;;11.88;;
26042;SDS011;13818;52.156;5.382;2023-02-22T02:57:54;39.00;;;13.02;;
26042;SDS011;13818;52.156;5.382;2023-02-22T03:00:21;40.38;;;12.02;;
26042;SDS011;13818;52.156;5.382;2023-02-22T03:02:59;37.88;;;12.90;;
26042;SDS011;13818;52.156;5.382;2023-02-22T03:05:39;37.15;;;12.38;;
26042;SDS011;13818;52.156;5.382;2023-02-22T03:08:19;40.97;;;12.45;;
26042;SDS011;13818;52.156;5.382;2023-02-22T03:10:57;39.22;;;12.30;;
26042;SDS011;13818;52.156;5.382;2023-02-22T03:13:30;39.67;;;11.90;;
26042;SDS011;13818;52.156;5.382;2023-02-22T03:16:06;38.63;;;12.23;;
26042;SDS011;13818;52.156;5.382;2023-02-22T03:18:43;43.95;;;13.35;;
26042;SDS011;13818;52.156;5.382;2023-02-22T03:21:19;43.25;;;12.45;;
26042;SDS011;13818;52.156;5.382;2023-02-22T03:23:55;46.08;;;12.93;;
26042;SDS011;13818;52.156;5.382;2023-02-22T03:26:32;41.00;;;13.07;;
26042;SDS011;13818;52.156;5.382;2023-02-22T03:29:02;36.45;;;12.57;;
26042;SDS011;13818;52.156;5.382;2023-02-22T03:34:03;42.97;;;12.50;;
26042;SDS011;13818;52.156;5.382;2023-02-22T03:36:34;39.90;;;12.80;;
26042;SDS011;13818;52.156;5.382;2023-02-22T03:39:05;51.85;;;14.45;;
26042;SDS011;13818;52.156;5.382;2023-02-22T03:41:36;46.20;;;13.90;;
26042;SDS011;13818;52.156;5.382;2023-02-22T03:44:05;45.63;;;13.48;;
26042;SDS011;13818;52.156;5.382;2023-02-22T03:46:36;40.58;;;12.55;;
26042;SDS011;13818;52.156;5.382;2023-02-22T03:49:08;45.72;;;14.35;;
26042;SDS011;13818;52.156;5.382;2023-02-22T03:51:37;44.88;;;13.52;;
26042;SDS011;13818;52.156;5.382;2023-02-22T03:54:04;47.70;;;13.32;;
26042;SDS011;13818;52.156;5.382;2023-02-22T03:56:32;45.63;;;13.77;;
26042;SDS011;13818;52.156;5.382;2023-02-22T03:59:03;50.33;;;14.93;;
26042;SDS011;13818;52.156;5.382;2023-02-22T04:01:32;46.65;;;14.80;;
26042;SDS011;13818;52.156;5.382;2023-02-22T04:03:59;47.55;;;13.57;;
26042;SDS011;13818;52.156;5.382;2023-02-22T04:06:27;44.50;;;13.13;;
26042;SDS011;13818;52.156;5.382;2023-02-22T04:08:54;56.22;;;13.55;;
26042;SDS011;13818;52.156;5.382;2023-02-22T04:11:21;49.70;;;13.60;;
26042;SDS011;13818;52.156;5.382;2023-02-22T04:13:48;51.10;;;14.45;;
26042;SDS011;13818;52.156;5.382;2023-02-22T04:16:14;42.85;;;14.18;;
26042;SDS011;13818;52.156;5.382;2023-02-22T04:18:41;49.50;;;15.18;;
26042;SDS011;13818;52.156;5.382;2023-02-22T04:21:07;50.00;;;13.40;;
26042;SDS011;13818;52.156;5.382;2023-02-22T04:23:35;46.80;;;13.35;;
26042;SDS011;13818;52.156;5.382;2023-02-22T04:26:02;45.45;;;13.60;;
26042;SDS011;13818;52.156;5.382;2023-02-22T04:28:28;44.80;;;13.35;;
26042;SDS011;13818;52.156;5.382;2023-02-22T04:30:55;44.65;;;14.68;;
26042;SDS011;13818;52.156;5.382;2023-02-22T04:33:21;55.38;;;15.93;;
26042;SDS011;13818;52.156;5.382;2023-02-22T04:35:48;59.53;;;16.23;;
26042;SDS011;13818;52.156;5.382;2023-02-22T04:38:15;52.85;;;15.35;;
26042;SDS011;13818;52.156;5.382;2023-02-22T04:40:43;50.95;;;14.82;;
26042;SDS011;13818;52.156;5.382;2023-02-22T04:43:10;53.88;;;14.73;;
26042;SDS011;13818;52.156;5.382;2023-02-22T04:45:36;56.67;;;16.25;;
26042;SDS011;13818;52.156;5.382;2023-02-22T04:48:03;49.72;;;13.48;;
26042;SDS011;13818;52.156;5.382;2023-02-22T04:50:29;58.53;;;15.00;;
26042;SDS011;13818;52.156;5.382;2023-02-22T04:52:56;55.58;;;15.90;;
26042;SDS011;13818;52.156;5.382;2023-02-22T04:55:22;55.25;;;16.48;;
26042;SDS011;13818;52.156;5.382;2023-02-22T04:57:50;54.63;;;15.60;;
26042;SDS011;13818;52.156;5.382;2023-02-22T05:00:17;50.55;;;14.43;;
26042;SDS011;13818;52.156;5.382;2023-02-22T05:02:45;68.75;;;16.08;;
26042;SDS011;13818;52.156;5.382;2023-02-22T05:05:12;52.72;;;15.35;;
26042;SDS011;13818;52.156;5.382;2023-02-22T05:07:40;54.00;;;13.55;;
26042;SDS011;13818;52.156;5.382;2023-02-22T05:10:06;47.30;;;13.50;;
26042;SDS011;13818;52.156;5.382;2023-02-22T05:12:33;58.58;;;15.82;;
26042;SDS011;13818;52.156;5.382;2023-02-22T05:15:01;60.35;;;15.30;;
26042;SDS011;13818;52.156;5.382;2023-02-22T05:17:28;60.25;;;14.70;;
26042;SDS011;13818;52.156;5.382;2023-02-22T05:19:54;57.28;;;15.95;;
26042;SDS011;13818;52.156;5.382;2023-02-22T05:22:21;52.42;;;14.38;;
26042;SDS011;13818;52.156;5.382;2023-02-22T05:24:48;66.55;;;17.70;;
26042;SDS011;13818;52.156;5.382;2023-02-22T05:27:16;52.33;;;14.63;;
26042;SDS011;13818;52.156;5.382;2023-02-22T05:29:43;66.35;;;16.98;;
26042;SDS011;13818;52.156;5.382;2023-02-22T05:32:11;56.50;;;16.80;;
26042;SDS011;13818;52.156;5.382;2023-02-22T05:34:37;54.40;;;16.10;;
26042;SDS011;13818;52.156;5.382;2023-02-22T05:37:04;62.50;;;15.90;;
26042;SDS011;13818;52.156;5.382;2023-02-22T05:39:31;70.18;;;17.15;;
26042;SDS011;13818;52.156;5.382;2023-02-22T05:41:57;59.25;;;14.27;;
26042;SDS011;13818;52.156;5.382;2023-02-22T05:44:24;64.10;;;16.30;;
26042;SDS011;13818;52.156;5.382;2023-02-22T05:46:52;61.58;;;16.90;;
26042;SDS011;13818;52.156;5.382;2023-02-22T05:49:19;59.88;;;15.63;;
26042;SDS011;13818;52.156;5.382;2023-02-22T05:51:46;71.53;;;16.17;;
26042;SDS011;13818;52.156;5.382;2023-02-22T05:54:12;63.97;;;15.38;;
26042;SDS011;13818;52.156;5.382;2023-02-22T05:56:39;61.42;;;17.75;;
26042;SDS011;13818;52.156;5.382;2023-02-22T05:59:05;65.78;;;18.00;;
26042;SDS011;13818;52.156;5.382;2023-02-22T06:01:32;77.60;;;16.90;;
26042;SDS011;13818;52.156;5.382;2023-02-22T06:03:59;77.43;;;17.95;;
26042;SDS011;13818;52.156;5.382;2023-02-22T06:06:27;66.30;;;16.42;;
26042;SDS011;13818;52.156;5.382;2023-02-22T06:08:53;71.68;;;17.30;;
26042;SDS011;13818;52.156;5.382;2023-02-22T06:11:19;71.95;;;17.58;;
26042;SDS011;13818;52.156;5.382;2023-02-22T06:13:49;71.85;;;17.25;;
26042;SDS011;13818;52.156;5.382;2023-02-22T06:16:16;73.43;;;16.88;;
26042;SDS011;13818;52.156;5.382;2023-02-22T06:18:43;70.40;;;16.33;;
26042;SDS011;13818;52.156;5.382;2023-02-22T06:21:11;83.88;;;18.92;;
26042;SDS011;13818;52.156;5.382;2023-02-22T06:23:38;78.43;;;18.35;;
26042;SDS011;13818;52.156;5.382;2023-02-22T06:26:05;93.13;;;22.08;;
26042;SDS011;13818;52.156;5.382;2023-02-22T06:28:31;82.32;;;18.88;;
26042;SDS011;13818;52.156;5.382;2023-02-22T06:30:58;86.70;;;19.73;;
26042;SDS011;13818;52.156;5.382;2023-02-22T06:33:24;84.10;;;18.92;;
26042;SDS011;13818;52.156;5.382;2023-02-22T06:35:51;89.47;;;20.35;;
26042;SDS011;13818;52.156;5.382;2023-02-22T06:38:20;82.22;;;21.27;;
26042;SDS011;13818;52.156;5.382;2023-02-22T06:40:49;86.68;;;19.52;;
26042;SDS011;13818;52.156;5.382;2023-02-22T06:43:16;86.95;;;20.67;;
26042;SDS011;13818;52.156;5.382;2023-02-22T06:45:43;92.82;;;20.45;;
26042;SDS011;13818;52.156;5.382;2023-02-22T06:48:09;79.28;;;18.70;;
26042;SDS011;13818;52.156;5.382;2023-02-22T06:50:36;80.82;;;19.15;;
26042;SDS011;13818;52.156;5.382;2023-02-22T06:53:02;90.38;;;19.63;;
26042;SDS011;13818;52.156;5.382;2023-02-22T06:55:29;86.20;;;19.67;;
26042;SDS011;13818;52.156;5.382;2023-02-22T06:57:59;99.13;;;21.15;;
26042;SDS011;13818;52.156;5.382;2023-02-22T07:00:27;83.57;;;17.45;;
26042;SDS011;13818;52.156;5.382;2023-02-22T07:02:55;84.80;;;20.55;;
26042;SDS011;13818;52.156;5.382;2023-02-22T07:05:22;84.63;;;19.20;;
26042;SDS011;13818;52.156;5.382;2023-02-22T07:07:52;83.72;;;20.60;;
26042;SDS011;13818;52.156;5.382;2023-02-22T07:10:21;74.07;;;18.48;;
26042;SDS011;13818;52.156;5.382;2023-02-22T07:12:50;87.30;;;19.58;;
26042;SDS011;13818;52.156;5.382;2023-02-22T07:15:19;89.18;;;19.02;;
26042;SDS011;13818;52.156;5.382;2023-02-22T07:17:47;86.82;;;20.02;;
26042;SDS011;13818;52.156;5.382;2023-02-22T07:20:14;92.40;;;20.95;;
26042;SDS011;13818;52.156;5.382;2023-02-22T07:22:42;86.00;;;19.70;;
26042;SDS011;13818;52.156;5.382;2023-02-22T07:25:08;88.20;;;20.80;;
26042;SDS011;13818;52.156;5.382;2023-02-22T07:27:36;96.18;;;20.52;;
26042;SDS011;13818;52.156;5.382;2023-02-22T07:30:03;93.50;;;19.58;;
26042;SDS011;13818;52.156;5.382;2023-02-22T07:32:32;91.22;;;20.60;;
26042;SDS011;13818;52.156;5.382;2023-02-22T07:34:58;80.53;;;19.77;;
26042;SDS011;13818;52.156;5.382;2023-02-22T07:37:27;80.18;;;18.80;;
26042;SDS011;13818;52.156;5.382;2023-02-22T07:39:53;76.90;;;21.08;;
26042;SDS011;13818;52.156;5.382;2023-02-22T07:42:20;72.32;;;18.92;;
26042;SDS011;13818;52.156;5.382;2023-02-22T07:44:47;79.28;;;20.98;;
26042;SDS011;13818;52.156;5.382;2023-02-22T07:47:14;78.07;;;19.20;;
26042;SDS011;13818;52.156;5.382;2023-02-22T07:49:42;83.95;;;21.02;;
26042;SDS011;13818;52.156;5.382;2023-02-22T07:52:08;85.47;;;20.38;;
26042;SDS011;13818;52.156;5.382;2023-02-22T07:54:36;84.18;;;20.88;;
26042;SDS011;13818;52.156;5.382;2023-02-22T07:57:03;86.63;;;19.48;;
26042;SDS011;13818;52.156;5.382;2023-02-22T07:59:29;84.40;;;18.88;;
26042;SDS011;13818;52.156;5.382;2023-02-22T08:01:58;98.43;;;22.45;;
26042;SDS011;13818;52.156;5.382;2023-02-22T08:04:24;82.82;;;22.27;;
26042;SDS011;13818;52.156;5.382;2023-02-22T08:06:52;96.85;;;23.02;;
26042;SDS011;13818;52.156;5.382;2023-02-22T08:09:20;87.13;;;21.60;;
26042;SDS011;13818;52.156;5.382;2023-02-22T08:11:47;89.82;;;20.85;;
26042;SDS011;13818;52.156;5.382;2023-02-22T08:14:14;83.30;;;21.35;;
26042;SDS011;13818;52.156;5.382;2023-02-22T08:16:43;87.30;;;20.27;;
26042;SDS011;13818;52.156;5.382;2023-02-22T08:19:09;71.18;;;17.33;;
26042;SDS011;13818;52.156;5.382;2023-02-22T08:21:36;73.55;;;18.92;;
26042;SDS011;13818;52.156;5.382;2023-02-22T08:24:04;73.22;;;18.10;;
26042;SDS011;13818;52.156;5.382;2023-02-22T08:26:31;84.03;;;21.13;;
26042;SDS011;13818;52.156;5.382;2023-02-22T08:28:57;66.95;;;18.10;;
26042;SDS011;13818;52.156;5.382;2023-02-22T08:31:24;84.72;;;19.05;;
26042;SDS011;13818;52.156;5.382;2023-02-22T08:33:50;87.20;;;18.98;;
26042;SDS011;13818;52.156;5.382;2023-02-22T08:36:17;78.60;;;19.33;;
26042;SDS011;13818;52.156;5.382;2023-02-22T08:38:43;81.78;;;19.50;;
26042;SDS011;13818;52.156;5.382;2023-02-22T08:41:11;74.30;;;19.00;;
26042;SDS011;13818;52.156;5.382;2023-02-22T08:43:39;67.28;;;17.83;;
26042;SDS011;13818;52.156;5.382;2023-02-22T08:46:06;66.43;;;16.63;;
26042;SDS011;13818;52.156;5.382;2023-02-22T08:48:32;59.97;;;15.23;;
26042;SDS011;13818;52.156;5.382;2023-02-22T08:50:59;51.90;;;17.15;;
26042;SDS011;13818;52.156;5.382;2023-02-22T08:53:25;64.78;;;16.15;;
26042;SDS011;13818;52.156;5.382;2023-02-22T08:55:52;52.38;;;15.00;;
26042;SDS011;13818;52.156;5.382;2023-02-22T08:58:20;53.30;;;15.38;;
26042;SDS011;13818;52.156;5.382;2023-02-22T09:00:46;54.60;;;15.82;;
26042;SDS011;13818;52.156;5.382;2023-02-22T09:03:13;63.63;;;16.50;;
26042;SDS011;13818;52.156;5.382;2023-02-22T09:05:40;52.92;;;15.93;;
26042;SDS011;13818;52.156;5.382;2023-02-22T09:08:08;46.65;;;14.63;;
26042;SDS011;13818;52.156;5.382;2023-02-22T09:10:34;54.28;;;15.98;;
26042;SDS011;13818;52.156;5.382;2023-02-22T09:13:01;50.50;;;14.88;;
26042;SDS011;13818;52.156;5.382;2023-02-22T09:15:31;48.53;;;14.13;;
26042;SDS011;13818;52.156;5.382;2023-02-22T09:18:00;47.47;;;13.75;;
26042;SDS011;13818;52.156;5.382;2023-02-22T09:20:27;51.45;;;15.13;;
26042;SDS011;13818;52.156;5.382;2023-02-22T09:22:54;53.40;;;15.10;;
26042;SDS011;13818;52.156;5.382;2023-02-22T09:25:20;56.38;;;16.17;;
26042;SDS011;13818;52.156;5.382;2023-02-22T09:27:48;49.67;;;14.43;;
26042;SDS011;13818;52.156;5.382;2023-02-22T09:30:18;49.97;;;14.80;;
26042;SDS011;13818;52.156;5.382;2023-02-22T09:32:50;45.13;;;13.10;;
26042;SDS011;13818;52.156;5.382;2023-02-22T09:35:17;43.33;;;13.90;;
26042;SDS011;13818;52.156;5.382;2023-02-22T09:37:44;42.45;;;13.50;;
26042;SDS011;13818;52.156;5.382;2023-02-22T09:40:13;50.55;;;13.98;;
26042;SDS011;13818;52.156;5.382;2023-02-22T09:42:49;56.00;;;15.75;;
26042;SDS011;13818;52.156;5.382;2023-02-22T09:45:27;47.15;;;14.07;;
26042;SDS011;13818;52.156;5.382;2023-02-22T09:48:02;49.80;;;14.55;;
26042;SDS011;13818;52.156;5.382;2023-02-22T09:50:33;45.55;;;13.48;;
26042;SDS011;13818;52.156;5.382;2023-02-22T09:53:11;42.35;;;14.13;;
26042;SDS011;13818;52.156;5.382;2023-02-22T09:55:55;43.90;;;13.73;;
26042;SDS011;13818;52.156;5.382;2023-02-22T09:58:24;46.15;;;15.15;;
26042;SDS011;13818;52.156;5.382;2023-02-22T10:00:59;44.22;;;14.35;;
26042;SDS011;13818;52.156;5.382;2023-02-22T10:03:44;44.55;;;14.63;;
26042;SDS011;13818;52.156;5.382;2023-02-22T10:06:16;50.80;;;15.32;;
26042;SDS011;13818;52.156;5.382;2023-02-22T10:08:46;48.38;;;13.93;;
26042;SDS011;13818;52.156;5.382;2023-02-22T10:11:20;47.05;;;14.90;;
26042;SDS011;13818;52.156;5.382;2023-02-22T10:14:00;38.05;;;12.65;;
26042;SDS011;13818;52.156;5.382;2023-02-22T10:16:42;39.58;;;13.27;;
26042;SDS011;13818;52.156;5.382;2023-02-22T10:19:22;46.20;;;13.48;;
26042;SDS011;13818;52.156;5.382;2023-02-22T10:21:58;45.53;;;13.32;;
26042;SDS011;13818;52.156;5.382;2023-02-22T10:24:42;46.65;;;13.88;;
26042;SDS011;13818;52.156;5.382;2023-02-22T10:27:19;45.88;;;13.00;;
26042;SDS011;13818;52.156;5.382;2023-02-22T10:29:48;40.22;;;12.73;;
26042;SDS011;13818;52.156;5.382;2023-02-22T10:32:19;39.60;;;13.05;;
26042;SDS011;13818;52.156;5.382;2023-02-22T10:34:53;40.92;;;13.23;;
26042;SDS011;13818;52.156;5.382;2023-02-22T10:37:23;39.30;;;13.02;;
26042;SDS011;13818;52.156;5.382;2023-02-22T10:39:52;38.25;;;13.23;;
26042;SDS011;13818;52.156;5.382;2023-02-22T10:42:24;38.33;;;12.23;;
26042;SDS011;13818;52.156;5.382;2023-02-22T10:44:52;38.30;;;13.95;;
26042;SDS011;13818;52.156;5.382;2023-02-22T10:47:19;39.60;;;14.93;;
26042;SDS011;13818;52.156;5.382;2023-02-22T10:49:47;42.00;;;13.35;;
26042;SDS011;13818;52.156;5.382;2023-02-22T10:52:21;39.50;;;12.40;;
26042;SDS011;13818;52.156;5.382;2023-02-22T10:54:50;39.13;;;13.52;;
26042;SDS011;13818;52.156;5.382;2023-02-22T10:57:19;40.80;;;13.57;;
26042;SDS011;13818;52.156;5.382;2023-02-22T10:59:48;37.05;;;13.90;;
26042;SDS011;13818;52.156;5.382;2023-02-22T11:02:17;36.92;;;11.82;;
26042;SDS011;13818;52.156;5.382;2023-02-22T11:04:47;35.78;;;12.77;;
26042;SDS011;13818;52.156;5.382;2023-02-22T11:07:21;35.10;;;13.80;;
26042;SDS011;13818;52.156;5.382;2023-02-22T11:09:50;42.47;;;13.05;;
26042;SDS011;13818;52.156;5.382;2023-02-22T11:12:20;37.65;;;13.05;;
26042;SDS011;13818;52.156;5.382;2023-02-22T11:14:52;37.58;;;13.07;;
26042;SDS011;13818;52.156;5.382;2023-02-22T11:17:27;40.75;;;13.45;;
26042;SDS011;13818;52.156;5.382;2023-02-22T11:19:56;40.33;;;13.43;;
26042;SDS011;13818;52.156;5.382;2023-02-22T11:22:26;33.17;;;11.52;;
26042;SDS011;13818;52.156;5.382;2023-02-22T11:24:56;38.38;;;11.73;;
26042;SDS011;13818;52.156;5.382;2023-02-22T11:27:28;36.83;;;13.23;;
26042;SDS011;13818;52.156;5.382;2023-02-22T11:30:17;34.30;;;12.80;;
26042;SDS011;13818;52.156;5.382;2023-02-22T11:32:46;39.63;;;13.68;;
26042;SDS011;13818;52.156;5.382;2023-02-22T11:38:13;40.63;;;12.43;;
26042;SDS011;13818;52.156;5.382;2023-02-22T11:40:42;48.78;;;14.05;;
26042;SDS011;13818;52.156;5.382;2023-02-22T11:43:12;42.42;;;11.93;;
26042;SDS011;13818;52.156;5.382;2023-02-22T11:45:50;39.88;;;12.38;;
26042;SDS011;13818;52.156;5.382;2023-02-22T11:48:24;39.72;;;12.32;;
26042;SDS011;13818;52.156;5.382;2023-02-22T11:50:54;38.10;;;12.57;;
26042;SDS011;13818;52.156;5.382;2023-02-22T11:53:36;36.15;;;11.70;;
26042;SDS011;13818;52.156;5.382;2023-02-22T11:56:14;34.80;;;13.23;;
26042;SDS011;13818;52.156;5.382;2023-02-22T11:58:45;41.25;;;12.48;;
26042;SDS011;13818;52.156;5.382;2023-02-22T12:01:17;42.72;;;12.45;;
26042;SDS011;13818;52.156;5.382;2023-02-22T12:03:58;37.35;;;11.65;;
26042;SDS011;13818;52.156;5.382;2023-02-22T12:06:47;38.42;;;12.68;;
26042;SDS011;13818;52.156;5.382;2023-02-22T12:09:23;39.20;;;12.43;;
26042;SDS011;13818;52.156;5.382;2023-02-22T12:12:02;40.75;;;11.82;;
26042;SDS011;13818;52.156;5.382;2023-02-22T12:14:38;44.47;;;13.18;;
26042;SDS011;13818;52.156;5.382;2023-02-22T12:20:08;44.67;;;12.98;;
26042;SDS011;13818;52.156;5.382;2023-02-22T12:22:46;40.67;;;12.52;;
26042;SDS011;13818;52.156;5.382;2023-02-22T12:25:22;37.47;;;12.63;;
26042;SDS011;13818;52.156;5.382;2023-02-22T12:27:54;37.80;;;13.20;;
26042;SDS011;13818;52.156;5.382;2023-02-22T12:30:24;33.53;;;11.75;;
26042;SDS011;13818;52.156;5.382;2023-02-22T12:32:54;37.83;;;12.90;;
26042;SDS011;13818;52.156;5.382;2023-02-22T12:35:24;42.30;;;13.48;;
26042;SDS011;13818;52.156;5.382;2023-02-22T12:37:58;42.40;;;12.35;;
26042;SDS011;13818;52.156;5.382;2023-02-22T12:40:32;44.55;;;12.18;;
26042;SDS011;13818;52.156;5.382;2023-02-22T12:43:05;35.95;;;11.32;;
26042;SDS011;13818;52.156;5.382;2023-02-22T12:45:42;37.10;;;13.45;;
26042;SDS011;13818;52.156;5.382;2023-02-22T12:48:23;38.08;;;11.95;;
26042;SDS011;13818;52.156;5.382;2023-02-22T12:51:01;40.50;;;12.50;;
26042;SDS011;13818;52.156;5.382;2023-02-22T12:53:39;38.00;;;12.25;;
26042;SDS011;13818;52.156;5.382;2023-02-22T12:56:17;40.60;;;12.80;;
26042;SDS011;13818;52.156;5.382;2023-02-22T12:58:50;39.40;;;12.07;;
26042;SDS011;13818;52.156;5.382;2023-02-22T13:01:23;40.03;;;12.75;;
26042;SDS011;13818;52.156;5.382;2023-02-22T13:03:54;36.38;;;12.05;;
26042;SDS011;13818;52.156;5.382;2023-02-22T13:06:27;35.15;;;11.40;;
26042;SDS011;13818;52.156;5.382;2023-02-22T13:09:06;35.90;;;11.52;;
26042;SDS011;13818;52.156;5.382;2023-02-22T13:11:47;38.78;;;12.93;;
26042;SDS011;13818;52.156;5.382;2023-02-22T13:14:22;43.53;;;12.63;;
26042;SDS011;13818;52.156;5.382;2023-02-22T13:17:05;38.05;;;11.98;;
26042;SDS011;13818;52.156;5.382;2023-02-22T13:19:40;37.42;;;12.48;;
26042;SDS011;13818;52.156;5.382;2023-02-22T13:22:13;38.30;;;13.63;;
26042;SDS011;13818;52.156;5.382;2023-02-22T13:24:47;37.20;;;12.52;;
26042;SDS011;13818;52.156;5.382;2023-02-22T13:27:25;34.97;;;13.38;;
26042;SDS011;13818;52.156;5.382;2023-02-22T13:29:56;34.67;;;12.02;;
26042;SDS011;13818;52.156;5.382;2023-02-22T13:32:28;33.45;;;12.32;;
26042;SDS011;13818;52.156;5.382;2023-02-22T13:41:18;41.05;;;13.35;;
26042;SDS011;13818;52.156;5.382;2023-02-22T13:44:07;35.75;;;13.13;;
26042;SDS011;13818;52.156;5.382;2023-02-22T13:46:58;37.75;;;13.98;;
26042;SDS011;13818;52.156;5.382;2023-02-22T13:49:57;37.28;;;12.75;;
26042;SDS011;13818;52.156;5.382;2023-02-22T13:52:44;38.05;;;13.45;;
26042;SDS011;13818;52.156;5.382;2023-02-22T13:57:43;40.55;;;12.00;;
26042;SDS011;13818;52.156;5.382;2023-02-22T14:00:37;38.00;;;12.02;;
26042;SDS011;13818;52.156;5.382;2023-02-22T14:03:15;39.35;;;12.63;;
26042;SDS011;13818;52.156;5.382;2023-02-22T14:06:00;36.45;;;12.25;;
26042;SDS011;13818;52.156;5.382;2023-02-22T14:08:40;38.58;;;11.80;;
26042;SDS011;13818;52.156;5.382;2023-02-22T14:14:21;36.90;;;11.75;;
26042;SDS011;13818;52.156;5.382;2023-02-22T14:19:59;28.92;;;11.27;;
26042;SDS011;13818;52.156;5.382;2023-02-22T14:22:38;31.73;;;10.85;;
26042;SDS011;13818;52.156;5.382;2023-02-22T14:25:13;35.67;;;12.15;;
26042;SDS011;13818;52.156;5.382;2023-02-22T14:27:56;33.88;;;11.80;;
26042;SDS011;13818;52.156;5.382;2023-02-22T14:30:25;38.10;;;12.55;;
26042;SDS011;13818;52.156;5.382;2023-02-22T14:32:56;35.72;;;12.43;;
26042;SDS011;13818;52.156;5.382;2023-02-22T14:35:24;31.95;;;13.50;;
26042;SDS011;13818;52.156;5.382;2023-02-22T14:37:57;30.73;;;11.70;;
26042;SDS011;13818;52.156;5.382;2023-02-22T14:42:57;31.13;;;11.57;;
26042;SDS011;13818;52.156;5.382;2023-02-22T14:45:28;34.63;;;12.38;;
26042;SDS011;13818;52.156;5.382;2023-02-22T14:47:59;30.88;;;12.32;;
26042;SDS011;13818;52.156;5.382;2023-02-22T14:50:36;27.13;;;11.32;;
26042;SDS011;13818;52.156;5.382;2023-02-22T14:53:12;33.72;;;12.68;;
26042;SDS011;13818;52.156;5.382;2023-02-22T14:55:48;30.73;;;11.45;;
26042;SDS011;13818;52.156;5.382;2023-02-22T14:58:21;28.55;;;11.90;;
26042;SDS011;13818;52.156;5.382;2023-02-22T15:00:51;33.00;;;11.40;;
26042;SDS011;13818;52.156;5.382;2023-02-22T15:03:26;32.25;;;12.38;;
26042;SDS011;13818;52.156;5.382;2023-02-22T15:06:02;25.58;;;10.60;;
26042;SDS011;13818;52.156;5.382;2023-02-22T15:08:30;30.30;;;12.05;;
26042;SDS011;13818;52.156;5.382;2023-02-22T15:10:58;30.80;;;10.90;;
26042;SDS011;13818;52.156;5.382;2023-02-22T15:13:27;29.48;;;11.35;;
26042;SDS011;13818;52.156;5.382;2023-02-22T15:15:57;27.88;;;12.23;;
26042;SDS011;13818;52.156;5.382;2023-02-22T15:18:27;27.77;;;10.90;;
26042;SDS011;13818;52.156;5.382;2023-02-22T15:21:01;31.27;;;12.02;;